createdAt,value
2019-01-14T00:01:58.814Z,163.00
2019-01-14T00:04:30.592Z,157.00
2019-01-14T00:07:02.313Z,154.40
2019-01-14T00:09:34.000Z,163.20
2019-01-14T00:12:05.724Z,165.60
2019-01-14T00:14:38.405Z,158.20
2019-01-14T00:17:10.287Z,163.00
2019-01-14T00:19:41.854Z,154.20
2019-01-14T00:22:13.701Z,159.40
2019-01-14T00:24:45.292Z,152.60
2019-01-14T00:27:16.744Z,153.20
2019-01-14T00:29:48.320Z,149.40
2019-01-14T00:32:20.013Z,155.40
2019-01-14T00:34:51.743Z,145.60
2019-01-14T00:37:23.454Z,142.80
2019-01-14T00:39:54.903Z,153.00
2019-01-14T00:42:27.241Z,151.00
2019-01-14T00:44:58.757Z,151.80
2019-01-14T00:47:30.609Z,153.60
2019-01-14T00:50:02.329Z,152.40
2019-01-14T00:52:34.430Z,133.20
2019-01-14T00:55:06.400Z,165.20
2019-01-14T00:57:38.464Z,160.60
2019-01-14T01:00:23.077Z,146.00
2019-01-14T01:02:56.203Z,149.00
2019-01-14T01:05:27.551Z,155.60
2019-01-14T01:07:59.089Z,146.80
2019-01-14T01:10:30.828Z,151.00
2019-01-14T01:13:02.780Z,145.80
2019-01-14T01:15:34.556Z,153.40
2019-01-14T01:18:06.596Z,147.80
2019-01-14T01:20:38.242Z,149.80
2019-01-14T01:23:10.222Z,154.60
2019-01-14T01:25:41.575Z,144.80
2019-01-14T01:28:14.571Z,148.00
2019-01-14T01:30:46.318Z,151.40
2019-01-14T01:33:18.084Z,132.40
2019-01-14T01:35:49.416Z,142.20
2019-01-14T01:38:21.316Z,151.00
2019-01-14T01:40:52.730Z,148.80
2019-01-14T01:43:23.998Z,146.00
2019-01-14T01:45:55.471Z,147.80
2019-01-14T01:48:27.155Z,143.40
2019-01-14T01:50:58.313Z,148.40
2019-01-14T01:53:31.423Z,160.60
2019-01-14T01:56:02.731Z,147.80
2019-01-14T01:58:34.265Z,154.20
2019-01-14T02:01:06.438Z,150.80
2019-01-14T02:03:38.370Z,154.60
2019-01-14T02:06:10.114Z,150.40
2019-01-14T02:08:41.652Z,139.00
2019-01-14T02:11:13.566Z,146.60
2019-01-14T02:13:45.120Z,148.00
2019-01-14T02:16:17.664Z,165.80
2019-01-14T02:18:49.058Z,165.20
2019-01-14T02:21:20.419Z,159.60
2019-01-14T02:23:52.036Z,155.80
2019-01-14T02:26:23.979Z,154.00
2019-01-14T02:28:55.680Z,136.60
2019-01-14T02:31:27.594Z,159.20
2019-01-14T02:33:59.448Z,141.80
2019-01-14T02:36:30.754Z,152.80
2019-01-14T02:39:02.291Z,157.40
2019-01-14T02:41:35.259Z,139.20
2019-01-14T02:44:06.811Z,140.00
2019-01-14T02:46:38.158Z,127.40
2019-01-14T02:49:09.984Z,146.60
2019-01-14T02:51:41.393Z,151.40
2019-01-14T02:54:15.639Z,146.00
2019-01-14T02:56:47.186Z,142.40
2019-01-14T02:59:19.788Z,162.80
2019-01-14T03:01:51.186Z,150.60
2019-01-14T03:04:22.732Z,145.20
2019-01-14T03:06:57.965Z,162.00
2019-01-14T03:09:27.029Z,161.40
2019-01-14T03:11:58.248Z,147.00
2019-01-14T03:14:29.792Z,160.40
2019-01-14T03:17:01.586Z,148.60
2019-01-14T03:19:33.032Z,155.80
2019-01-14T03:22:04.273Z,150.80
2019-01-14T03:24:35.843Z,155.60
2019-01-14T03:27:07.327Z,158.40
2019-01-14T03:29:39.581Z,167.40
2019-01-14T03:32:11.489Z,152.40
2019-01-14T03:34:44.239Z,167.60
2019-01-14T03:37:15.583Z,153.80
2019-01-14T03:39:46.978Z,149.00
2019-01-14T03:42:18.499Z,171.40
2019-01-14T03:44:50.018Z,147.00
2019-01-14T03:47:21.384Z,169.40
2019-01-14T03:49:53.096Z,159.00
2019-01-14T03:52:24.587Z,166.75
2019-01-14T03:54:56.202Z,179.50
2019-01-14T03:57:27.636Z,203.00
2019-01-14T03:59:59.364Z,210.25
2019-01-14T04:02:30.865Z,202.75
2019-01-14T04:05:02.699Z,179.50
2019-01-14T04:07:34.299Z,180.00
2019-01-14T04:10:07.146Z,171.00
2019-01-14T04:12:38.760Z,164.40
2019-01-14T04:15:11.560Z,171.20
2019-01-14T04:17:43.220Z,167.80
2019-01-14T04:20:16.877Z,178.60
2019-01-14T04:22:48.843Z,154.00
2019-01-14T04:25:20.341Z,164.20
2019-01-14T04:27:52.101Z,158.40
2019-01-14T04:30:25.534Z,160.80
2019-01-14T04:32:57.003Z,150.00
2019-01-14T04:35:28.801Z,149.80
2019-01-14T04:38:00.409Z,150.20
2019-01-14T04:40:32.005Z,134.00
2019-01-14T04:43:04.170Z,123.40
2019-01-14T04:45:35.709Z,129.40
2019-01-14T04:48:08.489Z,127.20
2019-01-14T04:50:39.911Z,127.00
2019-01-14T04:53:12.243Z,132.00
2019-01-14T04:55:43.637Z,116.80
2019-01-14T04:58:15.317Z,116.20
2019-01-14T05:00:46.972Z,121.20
2019-01-14T05:03:18.537Z,124.60
2019-01-14T05:05:49.927Z,112.20
2019-01-14T05:08:21.640Z,118.20
2019-01-14T05:10:53.080Z,120.60
2019-01-14T05:13:24.807Z,114.60
2019-01-14T05:15:56.185Z,108.40
2019-01-14T05:18:27.654Z,113.00
2019-01-14T05:20:59.057Z,111.20
2019-01-14T05:23:31.555Z,102.60
2019-01-14T05:26:03.208Z,103.00
2019-01-14T05:28:35.189Z,108.80
2019-01-14T05:31:06.749Z,104.80
2019-01-14T05:33:38.330Z,104.00
2019-01-14T05:36:10.005Z,100.80
2019-01-14T05:38:41.340Z,102.40
2019-01-14T05:41:13.033Z,97.80
2019-01-14T05:43:44.439Z,94.60
2019-01-14T05:46:15.757Z,85.60
2019-01-14T05:48:47.149Z,93.60
2019-01-14T05:51:18.946Z,94.60
2019-01-14T05:53:50.823Z,89.60
2019-01-14T05:56:23.223Z,84.60
2019-01-14T05:58:54.631Z,90.60
2019-01-14T06:01:26.157Z,89.40
2019-01-14T06:03:57.692Z,91.00
2019-01-14T06:06:29.184Z,82.20
2019-01-14T06:09:00.462Z,86.40
2019-01-14T06:11:32.082Z,77.80
2019-01-14T06:14:03.474Z,75.60
2019-01-14T06:16:34.611Z,74.40
2019-01-14T06:19:06.219Z,78.80
2019-01-14T06:21:37.523Z,74.20
2019-01-14T06:24:09.421Z,82.20
2019-01-14T06:26:40.883Z,78.40
2019-01-14T06:29:12.574Z,76.20
2019-01-14T06:31:43.920Z,85.20
2019-01-14T06:34:15.417Z,87.60
2019-01-14T06:36:47.094Z,86.20
2019-01-14T06:39:18.784Z,85.00
2019-01-14T06:41:50.205Z,72.20
2019-01-14T06:44:21.889Z,76.00
2019-01-14T06:46:53.316Z,70.40
2019-01-14T06:49:28.629Z,77.00
2019-01-14T06:52:09.599Z,69.80
2019-01-14T06:54:41.022Z,68.40
2019-01-14T06:57:12.412Z,65.00
2019-01-14T06:59:50.872Z,69.00
2019-01-14T07:02:22.688Z,67.00
2019-01-14T07:04:54.094Z,66.60
2019-01-14T07:07:25.512Z,68.00
2019-01-14T07:09:57.101Z,65.80
2019-01-14T07:12:28.772Z,62.80
2019-01-14T07:15:00.116Z,33.20
2019-01-14T07:17:32.816Z,57.00
2019-01-14T07:20:05.280Z,59.80
2019-01-14T07:22:36.826Z,58.40
2019-01-14T07:25:08.901Z,57.20
2019-01-14T07:27:43.422Z,55.20
2019-01-14T07:30:16.952Z,53.00
2019-01-14T07:32:48.529Z,51.60
2019-01-14T07:35:20.203Z,56.40
2019-01-14T07:37:52.028Z,50.40
2019-01-14T07:40:23.385Z,50.20
2019-01-14T07:42:54.870Z,51.80
2019-01-14T07:45:26.269Z,38.80
2019-01-14T07:47:57.820Z,51.00
2019-01-14T07:50:29.913Z,46.80
2019-01-14T07:53:01.459Z,44.20
2019-01-14T07:55:32.918Z,48.20
2019-01-14T07:58:04.591Z,38.80
2019-01-14T08:00:35.851Z,45.20
2019-01-14T08:03:07.266Z,48.40
2019-01-14T08:05:38.561Z,52.80
2019-01-14T08:08:13.925Z,53.00
2019-01-14T08:10:42.793Z,51.00
2019-01-14T08:13:22.683Z,49.80
2019-01-14T08:15:55.066Z,46.20
2019-01-14T08:18:26.379Z,51.00
2019-01-14T08:20:59.730Z,49.00
2019-01-14T08:23:40.667Z,48.25
2019-01-14T08:26:13.164Z,46.60
2019-01-14T08:28:44.622Z,48.60
2019-01-14T08:31:16.446Z,47.80
2019-01-14T08:33:47.936Z,45.00
2019-01-14T08:36:20.094Z,44.40
2019-01-14T08:38:51.665Z,42.00
2019-01-14T08:41:26.479Z,40.80
2019-01-14T08:44:01.911Z,51.00
2019-01-14T08:46:34.548Z,42.80
2019-01-14T08:49:05.952Z,48.20
2019-01-14T08:51:38.025Z,47.40
2019-01-14T08:54:09.257Z,47.40
2019-01-14T08:56:44.089Z,44.00
2019-01-14T08:59:15.425Z,43.60
2019-01-14T09:01:47.019Z,43.40
2019-01-14T09:04:22.353Z,48.20
2019-01-14T09:06:53.166Z,45.00
2019-01-14T09:09:24.518Z,51.60
2019-01-14T09:11:56.407Z,44.40
2019-01-14T09:14:27.716Z,45.20
2019-01-14T09:16:59.056Z,47.00
2019-01-14T09:19:30.527Z,44.80
2019-01-14T09:22:02.633Z,44.60
2019-01-14T09:24:35.224Z,45.60
2019-01-14T09:27:06.799Z,47.40
2019-01-14T09:29:38.150Z,48.40
2019-01-14T09:32:09.709Z,48.80
2019-01-14T09:34:41.289Z,51.80
2019-01-14T09:37:13.125Z,32.80
2019-01-14T09:39:44.795Z,48.00
2019-01-14T09:42:16.947Z,45.40
2019-01-14T09:44:48.307Z,46.40
2019-01-14T09:47:20.629Z,48.40
2019-01-14T09:49:52.496Z,48.00
2019-01-14T09:52:24.844Z,46.40
2019-01-14T09:54:56.623Z,49.60
2019-01-14T09:57:28.195Z,46.40
2019-01-14T10:00:00.290Z,46.00
2019-01-14T10:02:31.777Z,47.00
2019-01-14T10:05:03.929Z,45.20
2019-01-14T10:07:35.444Z,43.00
2019-01-14T10:10:08.598Z,42.00
2019-01-14T10:12:42.847Z,43.00
2019-01-14T10:15:17.220Z,43.40
2019-01-14T10:17:51.284Z,44.80
2019-01-14T10:20:24.897Z,43.60
2019-01-14T10:22:56.254Z,40.00
2019-01-14T10:25:28.075Z,40.20
2019-01-14T10:27:59.388Z,38.60
2019-01-14T10:41:53.053Z,43.60
2019-01-14T10:44:24.777Z,42.20
2019-01-14T10:46:56.091Z,44.00
2019-01-14T10:49:27.792Z,41.20
2019-01-14T10:51:59.013Z,42.00
2019-01-14T10:54:30.723Z,42.20
2019-01-14T10:57:03.010Z,40.20
2019-01-14T10:59:34.644Z,39.40
2019-01-14T11:02:06.244Z,39.60
2019-01-14T11:04:37.829Z,38.80
2019-01-14T11:07:09.327Z,44.00
2019-01-14T11:09:44.534Z,37.40
2019-01-14T11:12:14.007Z,39.60
2019-01-14T11:14:45.528Z,48.60
2019-01-14T11:17:17.224Z,47.20
2019-01-14T11:19:48.663Z,46.00
2019-01-14T11:22:20.290Z,45.60
2019-01-14T11:24:52.419Z,48.20
2019-01-14T11:27:24.216Z,49.20
2019-01-14T11:29:55.978Z,46.80
2019-01-14T11:32:27.458Z,48.60
2019-01-14T11:34:58.863Z,45.00
2019-01-14T11:37:30.491Z,47.40
2019-01-14T11:40:01.791Z,43.40
2019-01-14T11:42:33.608Z,42.40
2019-01-14T11:45:05.150Z,40.60
2019-01-14T11:47:36.723Z,45.00
2019-01-14T11:50:10.286Z,40.80
2019-01-14T11:52:42.114Z,42.40
2019-01-14T11:55:28.649Z,43.00
2019-01-14T11:58:00.892Z,40.20
2019-01-14T12:00:36.583Z,42.40
2019-01-14T12:03:05.659Z,40.80
2019-01-14T12:05:36.866Z,43.00
2019-01-14T12:08:08.237Z,44.00
2019-01-14T12:10:39.644Z,41.40
2019-01-14T12:13:10.928Z,40.00
2019-01-14T12:15:41.828Z,47.40
2019-01-14T12:18:13.102Z,49.60
2019-01-14T12:20:44.091Z,48.40
2019-01-14T12:23:15.512Z,43.80
2019-01-14T12:25:47.147Z,53.20
2019-01-14T12:28:19.032Z,56.00
2019-01-14T12:30:50.333Z,56.60
2019-01-14T12:33:21.713Z,61.00
2019-01-14T12:35:52.664Z,61.00
2019-01-14T12:38:24.870Z,61.40
2019-01-14T12:40:55.949Z,64.80
2019-01-14T12:43:27.308Z,61.40
2019-01-14T12:45:58.499Z,65.80
2019-01-14T12:48:30.094Z,68.00
2019-01-14T12:51:01.850Z,59.60
2019-01-14T12:53:33.296Z,65.80
2019-01-14T12:56:04.635Z,67.60
2019-01-14T12:58:36.397Z,68.60
2019-01-14T13:01:07.608Z,71.40
2019-01-14T13:03:39.041Z,77.40
2019-01-14T13:06:10.505Z,82.60
2019-01-14T13:08:42.049Z,82.60
2019-01-14T13:11:13.356Z,78.00
2019-01-14T13:13:44.493Z,82.20
2019-01-14T13:16:15.835Z,84.80
2019-01-14T13:18:47.206Z,76.60
2019-01-14T13:21:18.817Z,81.80
2019-01-14T13:23:50.415Z,77.00
2019-01-14T13:26:21.884Z,77.40
2019-01-14T13:28:53.827Z,80.20
2019-01-14T13:31:25.503Z,71.40
2019-01-14T13:33:57.125Z,75.60
2019-01-14T13:36:28.550Z,71.80
2019-01-14T13:38:59.890Z,75.80
2019-01-14T13:41:31.779Z,78.20
2019-01-14T13:44:02.969Z,74.80
2019-01-14T13:46:34.707Z,73.80
2019-01-14T13:49:06.458Z,72.40
2019-01-14T13:51:38.204Z,76.40
2019-01-14T13:54:10.069Z,73.60
2019-01-14T13:56:41.719Z,77.00
2019-01-14T13:59:13.342Z,75.20
2019-01-14T14:01:44.888Z,79.20
2019-01-14T14:04:16.578Z,82.00
2019-01-14T14:06:47.931Z,79.20
2019-01-14T14:09:19.010Z,87.40
2019-01-14T14:11:50.346Z,85.40
2019-01-14T14:14:22.287Z,85.80
2019-01-14T14:16:53.662Z,82.60
2019-01-14T14:19:25.069Z,85.20
2019-01-14T14:21:56.500Z,80.40
2019-01-14T14:24:28.310Z,79.80
2019-01-14T14:27:00.243Z,81.20
2019-01-14T14:29:31.707Z,80.60
2019-01-14T14:32:04.462Z,87.20
2019-01-14T14:34:36.436Z,118.80
2019-01-14T14:37:07.978Z,173.75
2019-01-14T14:39:39.871Z,215.50
2019-01-14T14:42:11.493Z,231.00
2019-01-14T14:44:43.061Z,203.50
2019-01-14T14:47:15.119Z,158.25
2019-01-14T14:49:46.592Z,186.75
2019-01-14T14:52:18.031Z,177.50
2019-01-14T14:54:49.865Z,144.25
2019-01-14T14:57:21.277Z,183.25
2019-01-14T14:59:52.908Z,236.50
2019-01-14T15:02:23.959Z,185.75
2019-01-14T15:04:55.168Z,164.25
2019-01-14T15:07:26.781Z,141.80
2019-01-14T15:09:59.661Z,123.80
2019-01-14T15:12:30.983Z,113.80
2019-01-14T15:15:02.400Z,118.00
2019-01-14T15:17:33.466Z,204.00
2019-01-14T15:20:06.545Z,301.25
2019-01-14T15:22:37.994Z,298.00
2019-01-14T15:25:09.207Z,380.80
2019-01-14T15:27:41.510Z,391.60
2019-01-14T15:30:19.729Z,95.60
2019-01-14T15:32:51.189Z,99.40
2019-01-14T15:35:23.140Z,124.40
2019-01-14T15:37:54.793Z,126.20
2019-01-14T15:40:26.810Z,106.00
2019-01-14T15:42:59.097Z,91.20
2019-01-14T15:45:30.476Z,96.40
2019-01-14T15:48:03.353Z,93.00
2019-01-14T15:50:34.749Z,90.60
2019-01-14T15:53:06.064Z,97.60
2019-01-14T15:55:39.109Z,97.40
2019-01-14T15:58:11.019Z,106.40
2019-01-14T16:00:42.411Z,99.80
2019-01-14T16:03:13.896Z,101.40
2019-01-14T16:05:45.550Z,105.40
2019-01-14T16:08:17.428Z,109.20
2019-01-14T16:10:48.844Z,84.40
2019-01-14T16:13:20.371Z,92.80
2019-01-14T16:15:51.675Z,106.40
2019-01-14T16:18:23.044Z,109.60
2019-01-14T16:20:54.502Z,93.60
2019-01-14T16:23:26.071Z,99.60
2019-01-14T16:25:57.536Z,91.20
2019-01-14T16:28:30.268Z,96.20
2019-01-14T16:31:01.989Z,94.60
2019-01-14T16:33:34.068Z,95.00
2019-01-14T16:36:05.523Z,94.40
2019-01-14T16:38:37.013Z,86.00
2019-01-14T16:41:08.390Z,106.20
2019-01-14T16:43:39.841Z,96.80
2019-01-14T16:46:12.294Z,93.00
2019-01-14T16:48:43.962Z,93.80
2019-01-14T16:51:15.245Z,94.40
2019-01-14T16:53:46.712Z,95.60
2019-01-14T16:56:18.511Z,91.60
2019-01-14T16:58:50.652Z,83.20
2019-01-14T17:01:22.095Z,92.60
2019-01-14T17:03:53.536Z,88.00
2019-01-14T17:06:24.802Z,83.40
2019-01-14T17:08:56.467Z,90.20
2019-01-14T17:11:28.213Z,90.00
2019-01-14T17:13:59.532Z,85.60
2019-01-14T17:16:30.736Z,80.60
2019-01-14T17:19:03.412Z,78.60
2019-01-14T17:21:34.881Z,80.80
2019-01-14T17:24:06.508Z,78.80
2019-01-14T17:26:38.008Z,74.80
2019-01-14T17:29:11.193Z,80.80
2019-01-14T17:31:44.852Z,75.40
2019-01-14T17:34:16.721Z,76.40
2019-01-14T17:36:48.509Z,78.20
2019-01-14T17:39:20.105Z,77.40
2019-01-14T17:41:52.044Z,78.80
2019-01-14T17:44:23.739Z,76.40
2019-01-14T17:46:55.295Z,76.80
2019-01-14T17:49:26.937Z,78.20
2019-01-14T17:51:58.390Z,77.60
2019-01-14T17:54:30.037Z,78.60
2019-01-14T17:57:01.216Z,82.40
2019-01-14T17:59:32.702Z,75.60
2019-01-14T18:02:04.432Z,78.80
2019-01-14T18:04:35.838Z,78.40
2019-01-14T18:07:06.974Z,75.40
2019-01-14T18:09:39.079Z,78.40
2019-01-14T18:12:10.418Z,75.00
2019-01-14T18:14:41.649Z,78.00
2019-01-14T18:17:13.047Z,79.00
2019-01-14T18:19:44.322Z,76.80
2019-01-14T18:22:15.520Z,75.00
2019-01-14T18:24:46.986Z,77.20
2019-01-14T18:27:18.594Z,66.40
2019-01-14T18:29:50.311Z,75.80
2019-01-14T18:32:21.474Z,75.20
2019-01-14T18:34:53.035Z,75.40
2019-01-14T18:37:24.182Z,81.80
2019-01-14T18:39:56.258Z,78.00
2019-01-14T18:42:27.591Z,78.60
2019-01-14T18:44:59.185Z,78.40
2019-01-14T18:47:30.785Z,80.20
2019-01-14T18:50:01.979Z,78.20
2019-01-14T18:52:33.231Z,75.00
2019-01-14T18:55:04.540Z,74.60
2019-01-14T18:57:35.718Z,73.80
2019-01-14T19:00:10.304Z,82.00
2019-01-14T19:02:42.157Z,76.80
2019-01-14T19:05:13.506Z,81.60
2019-01-14T19:07:44.990Z,78.60
2019-01-14T19:10:17.013Z,78.00
2019-01-14T19:12:48.809Z,79.00
2019-01-14T19:15:21.514Z,87.20
2019-01-14T19:17:53.998Z,76.00
2019-01-14T19:20:27.402Z,79.80
2019-01-14T19:22:59.937Z,85.20
2019-01-14T19:25:31.359Z,77.00
2019-01-14T19:28:02.607Z,85.00
2019-01-14T19:30:33.730Z,78.60
2019-01-14T19:33:05.357Z,76.40
2019-01-14T19:35:36.649Z,84.40
2019-01-14T19:38:08.023Z,80.20
2019-01-14T19:40:39.414Z,79.80
2019-01-14T19:43:11.159Z,78.00
2019-01-14T19:45:49.718Z,78.80
2019-01-14T19:48:17.821Z,76.80
2019-01-14T19:50:49.008Z,75.60
2019-01-14T19:53:20.317Z,81.00
2019-01-14T19:55:51.510Z,79.00
2019-01-14T19:58:22.903Z,75.60
2019-01-14T20:00:54.461Z,79.00
2019-01-14T20:03:25.797Z,78.20
2019-01-14T20:05:57.301Z,76.40
2019-01-14T20:08:28.760Z,75.20
2019-01-14T20:10:59.818Z,78.20
2019-01-14T20:13:31.103Z,79.40
2019-01-14T20:16:02.290Z,79.00
2019-01-14T20:18:33.583Z,74.50
2019-01-14T20:21:05.375Z,83.00
2019-01-14T20:23:37.350Z,78.20
2019-01-14T20:26:08.539Z,81.00
2019-01-14T20:28:39.930Z,80.60
2019-01-14T20:31:11.151Z,78.00
2019-01-14T20:33:42.474Z,80.60
2019-01-14T20:36:13.703Z,73.60
2019-01-14T20:38:45.249Z,79.20
2019-01-14T20:41:18.655Z,76.40
2019-01-14T20:43:49.774Z,75.80
2019-01-14T20:46:21.131Z,75.60
2019-01-14T20:48:52.978Z,76.80
2019-01-14T20:51:24.469Z,78.40
2019-01-14T20:53:55.922Z,73.00
2019-01-14T20:56:27.428Z,75.00
2019-01-14T20:58:58.792Z,73.80
2019-01-14T21:01:30.444Z,78.80
2019-01-14T21:04:03.119Z,75.80
2019-01-14T21:06:34.416Z,69.60
2019-01-14T21:09:08.011Z,73.80
2019-01-14T21:11:40.678Z,74.80
2019-01-14T21:14:12.452Z,75.40
2019-01-14T21:16:44.055Z,74.20
2019-01-14T21:19:15.792Z,74.20
2019-01-14T21:21:47.837Z,73.80
2019-01-14T21:24:19.578Z,71.20
2019-01-14T21:26:51.053Z,72.40
2019-01-14T21:29:25.984Z,73.80
2019-01-14T21:31:57.075Z,72.80
2019-01-14T21:34:28.682Z,72.00
2019-01-14T21:37:00.276Z,72.40
2019-01-14T21:39:31.561Z,74.20
2019-01-14T21:42:03.125Z,73.80
2019-01-14T21:44:34.559Z,70.60
2019-01-14T21:47:06.228Z,66.80
2019-01-14T21:49:37.983Z,73.80
2019-01-14T21:52:10.307Z,72.20
2019-01-14T21:54:41.684Z,70.00
2019-01-14T21:57:13.042Z,73.80
2019-01-14T21:59:45.032Z,65.60
2019-01-14T22:02:16.592Z,70.40
2019-01-14T22:04:47.773Z,69.00
2019-01-14T22:07:19.460Z,74.40
2019-01-14T22:09:51.308Z,72.00
2019-01-14T22:12:22.755Z,76.00
2019-01-14T22:14:54.457Z,66.80
2019-01-14T22:17:26.075Z,72.00
2019-01-14T22:19:57.739Z,71.20
2019-01-14T22:22:29.662Z,71.20
2019-01-14T22:25:01.324Z,69.60
2019-01-14T22:27:32.744Z,69.20
2019-01-14T22:30:04.697Z,67.40
2019-01-14T22:32:36.298Z,67.40
2019-01-14T22:35:11.053Z,69.80
2019-01-14T22:37:42.478Z,69.20
2019-01-14T22:40:14.725Z,73.00
2019-01-14T22:42:46.418Z,68.40
2019-01-14T22:45:18.238Z,69.40
2019-01-14T22:47:49.593Z,69.00
2019-01-14T22:50:21.478Z,72.40
2019-01-14T22:52:53.023Z,69.00
2019-01-14T22:55:24.661Z,69.00
2019-01-14T22:57:55.965Z,62.40
2019-01-14T23:00:54.526Z,75.20
2019-01-14T23:03:26.307Z,69.80
2019-01-14T23:05:57.516Z,72.80
2019-01-14T23:08:28.964Z,70.80
2019-01-14T23:11:00.122Z,69.00
2019-01-14T23:13:31.913Z,70.40
2019-01-14T23:16:03.166Z,70.80
2019-01-14T23:18:34.713Z,71.20
2019-01-14T23:21:06.034Z,63.80
2019-01-14T23:23:39.391Z,71.20
2019-01-14T23:26:12.402Z,71.20
2019-01-14T23:28:44.335Z,69.60
2019-01-14T23:31:16.165Z,70.00
2019-01-14T23:33:47.762Z,67.80
2019-01-14T23:36:19.189Z,75.00
2019-01-14T23:38:51.116Z,68.20
2019-01-14T23:41:22.426Z,67.80
2019-01-14T23:43:54.041Z,66.40
2019-01-14T23:46:25.394Z,72.20
2019-01-14T23:48:56.942Z,69.00
2019-01-14T23:51:28.259Z,66.60
2019-01-14T23:54:00.398Z,70.20
2019-01-14T23:56:33.479Z,67.40
2019-01-14T23:59:05.288Z,72.00
